Time;durP1;ratioP1;P1;durP2;ratioP2;P2;SDS_P1;SDS_P2;PMS_P1;PMS_P2;Temp;Humidity;BMP_temperature;BMP_pressure;BME280_temperature;BME280_humidity;BME280_pressure;Samples;Min_cycle;Max_cycle;Signal;HPM_P1;HPM_P2
2022/05/16 00:01:26;;;;;;;6.43;2.93;;;;;;;12.18;89.85;101014.50;5210064;28;20485;-77
2022/05/16 00:03:56;;;;;;;6.32;2.50;;;;;;;12.29;88.15;101017.56;5211291;28;20342;-77
2022/05/16 00:06:26;;;;;;;5.17;2.27;;;;;;;12.17;89.77;101017.16;5209436;28;20063;-77
2022/05/16 00:08:57;;;;;;;6.10;2.85;;;;;;;12.03;90.98;101015.03;5211234;28;20283;-77
2022/05/16 00:11:28;;;;;;;4.65;2.10;;;;;;;12.07;89.25;101021.88;5191239;28;20514;-77
2022/05/16 00:13:58;;;;;;;6.15;2.28;;;;;;;12.01;91.06;101011.63;5211280;28;20067;-75
2022/05/16 00:16:29;;;;;;;5.25;2.20;;;;;;;12.05;90.64;101002.72;5207824;28;20108;-75
2022/05/16 00:18:59;;;;;;;5.15;1.58;;;;;;;11.92;90.90;101001.44;5212075;28;20094;-75
2022/05/16 00:21:30;;;;;;;5.75;2.15;;;;;;;12.03;90.03;101001.06;5207000;28;20482;-75
2022/05/16 00:24:01;;;;;;;5.45;1.70;;;;;;;12.17;89.09;101002.31;5194288;28;20087;-75
2022/05/16 00:26:31;;;;;;;5.00;1.80;;;;;;;12.31;87.35;100999.19;5199919;28;20037;-75
2022/05/16 00:29:02;;;;;;;6.38;1.67;;;;;;;12.04;87.51;100995.78;5210270;28;20551;-75
2022/05/16 00:31:32;;;;;;;3.97;1.83;;;;;;;11.91;89.95;100993.63;5175176;28;20120;-75
2022/05/16 00:34:02;;;;;;;3.63;1.55;;;;;;;12.07;88.21;100992.19;5206796;28;20263;-75
2022/05/16 00:36:33;;;;;;;6.38;2.03;;;;;;;12.12;87.32;100988.50;5199459;28;20185;-77
2022/05/16 00:39:03;;;;;;;4.85;2.00;;;;;;;11.84;88.83;100987.75;5207117;28;20452;-77
2022/05/16 00:41:34;;;;;;;5.32;1.75;;;;;;;11.42;92.71;100989.13;5207685;28;20413;-77
2022/05/16 00:44:04;;;;;;;5.10;1.77;;;;;;;11.16;93.75;100981.28;5211221;28;20078;-77
2022/05/16 00:46:35;;;;;;;4.03;1.50;;;;;;;10.97;96.41;100976.66;5207085;28;20060;-77
2022/05/16 00:49:09;;;;;;;3.67;1.52;;;;;;;11.04;96.50;100976.41;5211471;28;20028;-77
2022/05/16 00:51:48;;;;;;;4.45;1.88;;;;;;;11.47;92.82;100981.97;5203687;28;20029;-76
2022/05/16 00:54:24;;;;;;;3.90;1.45;;;;;;;11.53;92.60;100979.19;5210823;28;20724;-77
2022/05/16 00:56:59;;;;;;;3.97;1.42;;;;;;;11.72;92.29;100982.94;5214472;28;20061;-77
2022/05/16 00:59:58;;;;;;;3.17;1.70;;;;;;;11.45;93.51;100982.94;5198197;28;20522;-77
2022/05/16 01:05:21;;;;;;;4.63;1.50;;;;;;;11.24;95.40;100978.41;5207551;28;20521;-77
2022/05/16 01:07:56;;;;;;;4.85;1.60;;;;;;;11.07;95.33;100973.69;5209061;28;20036;-77
2022/05/16 01:10:26;;;;;;;5.35;1.65;;;;;;;11.10;95.80;100976.22;5209236;28;20121;-77
2022/05/16 01:12:57;;;;;;;4.43;1.70;;;;;;;11.30;94.43;100967.75;5209236;28;20033;-77
2022/05/16 01:15:30;;;;;;;3.47;1.67;;;;;;;11.63;93.25;100969.28;5209943;28;20604;-77
2022/05/16 01:18:01;;;;;;;4.63;1.40;;;;;;;11.68;91.64;100968.22;5209844;28;20037;-77
2022/05/16 01:20:57;;;;;;;3.13;1.50;;;;;;;11.42;90.17;100954.28;5206419;28;20041;-77
2022/05/16 01:23:31;;;;;;;5.53;1.52;;;;;;;11.10;92.17;100950.06;5197408;28;20478;-76
2022/05/16 01:26:06;;;;;;;5.40;1.70;;;;;;;10.96;95.21;100948.78;5218047;28;20050;-76
2022/05/16 01:28:37;;;;;;;3.47;1.45;;;;;;;11.22;92.00;100947.06;5209720;28;20468;-77
2022/05/16 01:31:07;;;;;;;3.15;1.35;;;;;;;11.36;88.97;100947.47;5210071;28;20452;-76
2022/05/16 01:33:38;;;;;;;5.25;1.63;;;;;;;11.35;88.18;100945.75;5206427;28;20048;-77
2022/05/16 01:36:08;;;;;;;2.80;1.30;;;;;;;10.91;88.22;100945.47;5210173;28;20111;-77
2022/05/16 01:38:39;;;;;;;3.00;1.33;;;;;;;10.80;88.71;100955.38;5206374;28;20056;-77
2022/05/16 01:41:17;;;;;;;3.80;1.35;;;;;;;10.79;89.17;100950.19;5225993;22;20326;-75
2022/05/16 01:43:55;;;;;;;3.80;1.30;;;;;;;10.53;90.52;100947.53;5196929;28;20033;-74
2022/05/16 01:46:29;;;;;;;3.17;1.48;;;;;;;10.34;93.48;100938.50;5182247;28;20371;-75
2022/05/16 01:48:59;;;;;;;4.10;1.42;;;;;;;10.23;95.60;100941.44;5182899;28;20052;-74
2022/05/16 01:51:30;;;;;;;3.83;1.58;;;;;;;10.02;96.53;100938.56;5172108;28;20037;-74
2022/05/16 01:54:02;;;;;;;3.88;1.85;;;;;;;10.24;96.66;100940.53;5172948;28;20025;-75
2022/05/16 01:56:34;;;;;;;4.88;1.77;;;;;;;10.26;95.98;100940.47;5194090;28;20031;-74
2022/05/16 01:59:05;;;;;;;4.28;1.65;;;;;;;10.34;96.62;100933.28;5202964;28;20406;-74
2022/05/16 02:01:36;;;;;;;3.78;1.58;;;;;;;10.15;97.01;100924.25;5194474;28;20052;-75
2022/05/16 02:04:06;;;;;;;3.80;1.40;;;;;;;10.44;95.33;100924.25;5182309;28;20034;-75
2022/05/16 02:06:37;;;;;;;4.53;1.40;;;;;;;10.40;94.85;100926.13;5170059;28;20029;-73
2022/05/16 02:09:07;;;;;;;3.88;1.40;;;;;;;10.32;96.88;100916.81;5190443;28;20040;-74
2022/05/16 02:11:37;;;;;;;3.83;1.42;;;;;;;10.51;96.48;100916.19;5182130;28;20042;-74
2022/05/16 02:14:07;;;;;;;5.55;1.70;;;;;;;10.36;95.17;100910.56;5198993;28;20033;-74
2022/05/16 02:16:38;;;;;;;5.07;1.27;;;;;;;10.46;95.03;100912.00;5193919;28;20039;-75
2022/05/16 02:19:08;;;;;;;2.33;1.30;;;;;;;10.60;95.00;100910.72;5194027;28;20024;-75
2022/05/16 02:24:39;;;;;;;2.95;1.27;;;;;;;10.50;94.40;100903.19;5191994;28;20056;-74
2022/05/16 02:27:13;;;;;;;4.00;1.45;;;;;;;10.69;93.73;100912.19;5186600;28;20022;-74
2022/05/16 02:29:45;;;;;;;2.88;1.50;;;;;;;10.28;95.97;100913.41;5172881;28;20478;-75
2022/05/16 02:32:15;;;;;;;3.35;1.42;;;;;;;10.48;95.73;100905.00;5197915;28;20037;-75
2022/05/16 02:34:45;;;;;;;3.38;1.20;;;;;;;10.25;95.54;100897.84;5189034;28;20083;-74
2022/05/16 02:37:16;;;;;;;4.32;1.40;;;;;;;10.41;93.10;100893.88;5177884;28;20037;-74
2022/05/16 02:39:47;;;;;;;7.47;1.40;;;;;;;10.26;93.40;100901.28;5196701;28;20037;-74
2022/05/16 02:42:17;;;;;;;4.43;1.50;;;;;;;10.42;92.95;100898.19;5186812;28;20025;-74
2022/05/16 02:44:47;;;;;;;3.25;1.30;;;;;;;10.03;94.63;100890.66;5190047;28;20038;-74
2022/05/16 02:47:21;;;;;;;4.20;1.60;;;;;;;10.02;94.66;100889.78;5170074;28;20139;-75
2022/05/16 02:49:51;;;;;;;2.67;1.30;;;;;;;10.02;96.87;100900.22;5185724;28;20491;-75
2022/05/16 02:52:21;;;;;;;2.20;1.23;;;;;;;10.07;94.64;100892.25;5193008;28;20115;-74
2022/05/16 02:54:52;;;;;;;3.35;1.55;;;;;;;10.19;94.32;100884.09;5196198;28;20041;-74
2022/05/16 02:57:22;;;;;;;4.63;1.50;;;;;;;10.11;95.58;100883.44;5204028;28;20389;-74
2022/05/16 02:59:53;;;;;;;2.83;1.40;;;;;;;10.28;94.87;100875.97;5200050;28;20030;-74
2022/05/16 03:02:24;;;;;;;2.88;1.38;;;;;;;10.29;93.57;100880.28;5185558;28;20029;-74
2022/05/16 03:04:54;;;;;;;6.28;1.65;;;;;;;10.23;93.49;100873.50;5196514;28;20425;-74
2022/05/16 03:07:24;;;;;;;3.08;1.50;;;;;;;10.33;91.49;100884.56;5206151;28;20060;-74
2022/05/16 03:09:55;;;;;;;3.47;1.40;;;;;;;10.11;93.56;100886.06;5196237;28;20052;-74
2022/05/16 03:12:25;;;;;;;3.95;1.27;;;;;;;10.00;94.11;100890.72;5178547;28;20032;-74
2022/05/16 03:14:55;;;;;;;2.88;1.35;;;;;;;10.16;93.01;100881.56;5206598;28;20029;-74
2022/05/16 03:17:26;;;;;;;6.07;1.65;;;;;;;10.10;93.27;100879.13;5180077;28;20033;-75
2022/05/16 03:19:56;;;;;;;3.72;1.58;;;;;;;10.28;93.19;100878.59;5178268;28;20525;-74
2022/05/16 03:22:26;;;;;;;2.35;1.40;;;;;;;10.13;93.15;100876.44;5185254;28;20022;-74
2022/05/16 03:24:57;;;;;;;3.97;1.52;;;;;;;10.39;92.41;100877.38;5189971;28;20108;-74
2022/05/16 03:27:27;;;;;;;3.05;1.38;;;;;;;10.46;91.76;100875.41;5179733;28;20025;-74
2022/05/16 03:29:58;;;;;;;2.55;1.52;;;;;;;10.43;92.80;100875.50;5187948;28;20568;-75
2022/05/16 03:32:28;;;;;;;4.43;1.60;;;;;;;10.53;90.97;100882.19;5205624;28;20029;-74
2022/05/16 03:34:58;;;;;;;2.40;1.33;;;;;;;10.48;92.71;100881.47;5186796;28;20037;-74
2022/05/16 03:37:29;;;;;;;3.55;1.45;;;;;;;10.40;93.04;100875.63;5197289;28;20026;-74
2022/05/16 03:42:48;;;;;;;3.92;1.50;;;;;;;10.45;93.55;100868.47;5176276;28;20107;-74
2022/05/16 03:45:19;;;;;;;3.65;1.50;;;;;;;10.77;90.89;100869.22;5188102;28;20029;-74
2022/05/16 03:47:49;;;;;;;3.90;1.40;;;;;;;10.69;92.67;100863.34;5195691;28;20032;-74
2022/05/16 03:50:20;;;;;;;5.90;1.70;;;;;;;10.78;90.82;100867.44;5198427;28;20417;-74
2022/05/16 03:52:50;;;;;;;5.72;2.10;;;;;;;10.76;90.86;100864.91;5200938;28;20021;-74
2022/05/16 03:55:20;;;;;;;4.35;1.42;;;;;;;10.71;92.01;100860.72;5193984;28;20471;-74
2022/05/16 03:57:50;;;;;;;3.58;1.38;;;;;;;10.95;89.88;100866.00;5180382;28;20438;-75
2022/05/16 04:00:22;;;;;;;3.53;1.43;;;;;;;10.74;91.45;100865.84;5195076;28;20036;-75
2022/05/16 04:02:52;;;;;;;2.40;1.40;;;;;;;10.80;92.42;100870.84;5190559;28;20344;-74
2022/05/16 04:05:24;;;;;;;2.30;1.30;;;;;;;10.86;92.06;100863.69;5194294;28;20110;-73
2022/05/16 04:07:55;;;;;;;3.28;1.60;;;;;;;11.03;91.12;100859.63;5181377;28;20028;-74
2022/05/16 04:10:25;;;;;;;4.72;1.50;;;;;;;10.84;90.11;100862.88;5196832;28;20030;-72
2022/05/16 04:12:55;;;;;;;4.47;1.70;;;;;;;11.06;89.99;100858.66;5200824;28;21208;-75
2022/05/16 04:15:26;;;;;;;4.43;1.95;;;;;;;10.94;90.90;100852.97;5192155;28;20033;-75
2022/05/16 04:17:56;;;;;;;3.47;1.60;;;;;;;11.15;91.31;100848.78;5201554;28;20078;-75
2022/05/16 04:20:27;;;;;;;3.72;1.70;;;;;;;11.07;90.72;100849.94;5206069;28;20021;-74
2022/05/16 04:22:57;;;;;;;3.45;1.70;;;;;;;11.07;91.05;100840.31;5197415;28;20249;-75
2022/05/16 04:25:27;;;;;;;2.92;1.77;;;;;;;11.18;90.89;100839.94;5194829;28;20025;-74
2022/05/16 04:27:58;;;;;;;4.90;1.77;;;;;;;11.35;90.39;100851.56;5201347;28;20026;-76
2022/05/16 04:30:28;;;;;;;3.88;1.58;;;;;;;12.29;89.14;100831.50;5193935;28;20132;-73
2022/05/16 04:32:59;;;;;;;2.80;1.60;;;;;;;13.13;82.25;100828.09;5193350;28;20057;-74
2022/05/16 04:35:30;;;;;;;3.92;1.27;;;;;;;14.61;75.86;100823.94;5182947;28;20423;-74
2022/05/16 04:38:00;;;;;;;3.10;1.30;;;;;;;15.79;73.97;100819.66;5197623;28;20029;-74
2022/05/16 04:40:32;;;;;;;3.20;1.30;;;;;;;17.59;66.18;100811.03;5199572;28;20395;-75
2022/05/16 04:43:02;;;;;;;2.65;1.33;;;;;;;17.60;68.02;100812.72;5204599;28;20283;-75
2022/05/16 04:45:32;;;;;;;3.43;1.47;;;;;;;18.73;62.71;100811.69;5205164;28;20030;-75
2022/05/16 04:48:06;;;;;;;1.98;1.30;;;;;;;20.20;62.67;100805.00;5179074;28;20281;-75
2022/05/16 04:50:36;;;;;;;2.00;1.10;;;;;;;20.11;59.22;100803.00;5192731;28;20022;-74
2022/05/16 04:53:06;;;;;;;4.18;1.40;;;;;;;20.37;61.04;100803.78;5154199;28;20140;-74
2022/05/16 04:55:37;;;;;;;2.55;1.25;;;;;;;21.48;57.76;100785.59;5184937;28;20406;-75
2022/05/16 04:58:07;;;;;;;2.33;1.20;;;;;;;22.27;54.73;100789.06;5195556;28;20094;-75
2022/05/16 05:00:37;;;;;;;2.35;1.10;;;;;;;22.33;56.76;100794.75;5194191;28;20272;-75
2022/05/16 05:03:08;;;;;;;3.20;1.38;;;;;;;20.55;61.17;100803.31;5196579;28;20198;-75
2022/05/16 05:05:38;;;;;;;2.20;1.30;;;;;;;22.17;56.02;100812.06;5189562;28;20398;-75
2022/05/16 05:08:09;;;;;;;2.93;1.53;;;;;;;21.67;57.23;100810.72;5184103;28;20106;-75
2022/05/16 05:16:20;;;;;;;4.10;1.30;;;;;;;23.87;52.55;100802.97;5183582;28;20109;-75
2022/05/16 05:18:51;;;;;;;3.83;1.50;;;;;;;23.54;54.13;100805.00;5183595;28;20497;-75
2022/05/16 05:21:22;;;;;;;2.88;1.50;;;;;;;23.84;54.08;100813.91;5183248;28;20033;-75
2022/05/16 05:23:52;;;;;;;3.55;1.33;;;;;;;25.67;50.53;100791.72;5187805;28;20498;-75
2022/05/16 05:26:22;;;;;;;3.23;1.50;;;;;;;25.45;50.05;100792.91;5191744;28;20033;-75
2022/05/16 05:28:52;;;;;;;2.75;1.35;;;;;;;25.71;50.86;100790.44;5186617;28;20668;-74
2022/05/16 05:31:25;;;;;;;2.50;1.48;;;;;;;25.96;50.54;100795.19;5169620;28;20438;-75
2022/05/16 05:33:55;;;;;;;2.25;1.23;;;;;;;26.59;49.85;100795.19;5187986;28;20450;-75
2022/05/16 05:36:26;;;;;;;4.93;1.48;;;;;;;25.73;51.81;100801.84;5191032;28;20034;-75
2022/05/16 05:38:58;;;;;;;6.00;1.30;;;;;;;25.92;51.52;100804.50;5194968;28;20030;-75
2022/05/16 05:41:28;;;;;;;6.05;1.85;;;;;;;25.96;51.66;100804.06;5194101;28;20465;-75
2022/05/16 05:43:58;;;;;;;4.25;1.60;;;;;;;24.98;51.30;100811.63;5192496;28;20034;-74
2022/05/16 05:46:37;;;;;;;3.80;1.50;;;;;;;25.74;49.54;100798.19;5186321;28;20029;-75
2022/05/16 05:49:09;;;;;;;3.75;1.52;;;;;;;25.06;52.68;100809.09;5189857;28;20028;-75
2022/05/16 05:51:40;;;;;;;2.60;1.00;;;;;;;23.60;55.07;100804.47;5182284;28;20474;-75
2022/05/16 05:54:10;;;;;;;3.15;1.33;;;;;;;24.54;54.48;100798.75;5186771;28;20043;-74
2022/05/16 05:56:40;;;;;;;3.13;1.23;;;;;;;25.50;52.82;100790.63;5180738;28;20087;-75
2022/05/16 05:59:10;;;;;;;3.67;1.60;;;;;;;24.20;55.41;100805.38;5182683;28;20506;-73
2022/05/16 06:01:40;;;;;;;3.53;1.50;;;;;;;22.86;56.52;100808.06;5198923;28;20299;-74
2022/05/16 06:04:11;;;;;;;2.93;1.40;;;;;;;22.19;58.42;100805.66;5203041;28;20224;-74
2022/05/16 06:06:43;;;;;;;3.90;1.30;;;;;;;21.05;59.99;100806.63;5184342;28;20286;-75
2022/05/16 06:09:13;;;;;;;6.15;1.30;;;;;;;20.66;62.12;100806.03;5191105;28;20417;-75
2022/05/16 06:11:44;;;;;;;3.17;1.20;;;;;;;20.41;62.17;100814.09;5198162;28;20025;-75
2022/05/16 06:14:14;;;;;;;2.80;1.27;;;;;;;20.43;62.04;100808.69;5202704;28;20037;-75
2022/05/16 06:16:45;;;;;;;2.90;1.27;;;;;;;19.87;63.67;100810.00;5202783;28;20087;-75
2022/05/16 06:19:15;;;;;;;3.70;1.38;;;;;;;20.24;63.10;100803.81;5185128;28;20040;-74
2022/05/16 06:21:46;;;;;;;4.45;1.30;;;;;;;20.70;60.78;100807.53;5168318;28;20025;-74
2022/05/16 06:27:07;;;;;;;3.10;1.00;;;;;;;20.68;62.20;100814.72;5197997;28;20124;-74
2022/05/16 06:29:37;;;;;;;5.15;1.48;;;;;;;20.63;60.43;100806.25;5189822;28;20105;-75
2022/05/16 06:32:07;;;;;;;3.20;1.33;;;;;;;20.66;58.86;100802.53;5201910;28;20132;-75
2022/05/16 06:34:38;;;;;;;6.20;1.30;;;;;;;20.97;59.89;100801.03;5180787;28;20283;-75
2022/05/16 06:37:08;;;;;;;4.80;1.50;;;;;;;21.49;59.29;100800.59;5165381;28;20320;-74
2022/05/16 06:39:39;;;;;;;3.57;1.30;;;;;;;20.63;58.14;100794.78;5182231;28;20084;-74
2022/05/16 06:42:09;;;;;;;5.18;1.63;;;;;;;20.76;59.14;100791.13;5193936;28;20359;-74
2022/05/16 06:44:41;;;;;;;3.33;1.40;;;;;;;21.47;58.23;100797.19;5190773;28;20364;-73
2022/05/16 06:47:11;;;;;;;4.43;1.48;;;;;;;21.83;58.12;100799.69;5182277;28;20340;-75
2022/05/16 06:49:41;;;;;;;6.93;1.55;;;;;;;21.76;57.22;100798.50;5195155;28;20018;-74
2022/05/16 06:52:11;;;;;;;3.70;1.20;;;;;;;22.26;57.53;100798.00;5203115;28;20512;-74
2022/05/16 06:54:43;;;;;;;4.60;1.27;;;;;;;22.39;56.60;100793.44;5196849;28;20487;-72
2022/05/16 06:57:13;;;;;;;3.53;1.30;;;;;;;22.31;55.74;100801.16;5176156;28;20276;-72
2022/05/16 06:59:44;;;;;;;4.68;1.40;;;;;;;21.84;56.29;100796.06;5196959;28;20025;-73
2022/05/16 07:02:14;;;;;;;3.72;1.48;;;;;;;23.21;55.66;100789.19;5188926;28;20022;-73
2022/05/16 07:04:45;;;;;;;5.00;1.30;;;;;;;24.51;53.86;100787.44;5187975;28;20645;-73
2022/05/16 07:07:15;;;;;;;4.35;1.15;;;;;;;23.13;53.39;100783.63;5186226;28;20029;-72
2022/05/16 07:09:46;;;;;;;3.97;1.30;;;;;;;23.11;54.84;100793.56;5186905;28;20061;-73
2022/05/16 07:12:17;;;;;;;1.98;1.23;;;;;;;23.74;54.57;100786.28;5180192;28;20080;-72
2022/05/16 07:14:48;;;;;;;2.85;1.33;;;;;;;24.19;53.00;100787.66;5178094;28;20085;-72
2022/05/16 07:17:18;;;;;;;3.13;1.30;;;;;;;23.66;53.67;100788.78;5187147;28;20068;-73
2022/05/16 07:19:49;;;;;;;4.00;1.50;;;;;;;24.33;52.51;100789.09;5188426;28;20025;-73
2022/05/16 07:22:24;;;;;;;3.97;1.40;;;;;;;24.66;51.91;100776.25;5184458;28;20280;-74
2022/05/16 07:24:57;;;;;;;2.25;1.02;;;;;;;23.60;53.98;100775.97;5191080;28;20034;-73
2022/05/16 07:30:17;;;;;;;2.75;1.05;;;;;;;23.23;53.07;100782.72;5175178;28;20202;-73
2022/05/16 07:32:47;;;;;;;3.50;1.20;;;;;;;22.75;54.05;100775.28;5186950;28;20030;-73
2022/05/16 07:35:25;;;;;;;2.90;1.10;;;;;;;24.14;51.99;100768.50;5184452;28;20044;-72
2022/05/16 07:37:56;;;;;;;5.63;1.27;;;;;;;24.49;51.03;100760.88;5186032;28;20574;-74
2022/05/16 07:40:30;;;;;;;3.88;1.38;;;;;;;25.14;51.37;100756.56;5190572;28;20095;-75
2022/05/16 07:43:02;;;;;;;3.40;1.23;;;;;;;25.37;50.51;100757.13;5206422;23;20148;-74
2022/05/16 07:45:32;;;;;;;3.47;1.20;;;;;;;26.64;51.02;100758.03;5177532;28;20022;-74
2022/05/16 07:48:03;;;;;;;5.63;1.33;;;;;;;26.30;49.92;100742.69;5191758;28;20029;-74
2022/05/16 07:50:38;;;;;;;2.60;1.10;;;;;;;25.83;49.91;100749.13;5188074;28;20037;-74
2022/05/16 07:53:13;;;;;;;4.28;1.17;;;;;;;24.69;50.16;100757.25;5177424;28;20029;-74
2022/05/16 07:55:50;;;;;;;2.77;1.20;;;;;;;23.54;50.86;100744.44;5188368;28;20029;-74
2022/05/16 07:58:21;;;;;;;6.13;1.20;;;;;;;24.77;50.51;100725.34;5194722;28;20550;-74
2022/05/16 08:00:53;;;;;;;4.28;1.17;;;;;;;26.40;49.40;100741.66;5189692;28;20132;-74
2022/05/16 08:03:26;;;;;;;3.92;0.95;;;;;;;25.70;50.74;100738.69;5189553;28;20067;-73
2022/05/16 08:05:57;;;;;;;4.20;1.30;;;;;;;26.55;48.64;100736.63;5190648;28;20034;-75
2022/05/16 08:11:16;;;;;;;3.35;1.33;;;;;;;26.24;50.36;100748.66;5186753;28;20479;-73
2022/05/16 08:13:48;;;;;;;3.83;1.37;;;;;;;26.62;48.82;100745.75;5188189;28;20109;-73
2022/05/16 08:16:18;;;;;;;3.58;1.40;;;;;;;27.27;47.17;100739.00;5189682;28;20286;-73
2022/05/16 08:18:49;;;;;;;2.90;1.20;;;;;;;27.29;47.78;100745.06;5191593;28;20485;-73
2022/05/16 08:21:19;;;;;;;2.75;1.10;;;;;;;26.87;47.93;100735.97;5189246;28;20037;-73
2022/05/16 08:23:50;;;;;;;5.20;1.43;;;;;;;27.11;48.18;100733.50;5192883;28;20084;-73
2022/05/16 08:26:21;;;;;;;3.75;1.30;;;;;;;28.35;47.75;100719.47;5191674;28;20737;-74
2022/05/16 08:28:51;;;;;;;3.40;1.33;;;;;;;27.78;47.53;100730.97;5183313;28;20077;-74
2022/05/16 08:31:21;;;;;;;4.27;1.37;;;;;;;27.47;47.70;100727.03;5179328;28;20038;-74
2022/05/16 08:33:51;;;;;;;4.38;1.30;;;;;;;27.15;47.13;100742.97;5189102;28;20056;-73
2022/05/16 08:42:08;;;;;;;8.52;1.80;;;;;;;27.19;49.71;100738.09;5183219;28;20033;-73
2022/05/16 08:44:44;;;;;;;3.35;1.40;;;;;;;25.98;50.00;100739.63;5182394;28;20052;-73
2022/05/16 08:47:37;;;;;;;5.57;1.42;;;;;;;26.86;48.69;100723.53;5171343;28;20372;-73
2022/05/16 08:50:16;;;;;;;5.03;1.38;;;;;;;26.41;48.18;100729.06;5181933;28;20080;-73
2022/05/16 08:53:03;;;;;;;7.43;1.38;;;;;;;27.57;48.99;100726.94;5186788;28;20026;-73
2022/05/16 08:55:47;;;;;;;8.48;2.00;;;;;;;27.30;48.17;100717.19;5195274;28;20060;-73
2022/05/16 08:58:33;;;;;;;2.58;1.30;;;;;;;27.59;48.69;100723.09;5193198;28;20060;-73
2022/05/16 09:01:18;;;;;;;4.97;1.40;;;;;;;28.17;47.30;100731.31;5178731;28;20022;-73
2022/05/16 09:03:56;;;;;;;6.82;1.60;;;;;;;27.54;47.43;100728.13;5178912;28;20025;-73
2022/05/16 09:06:46;;;;;;;3.75;1.40;;;;;;;27.81;48.45;100719.06;5184851;28;20520;-73
2022/05/16 09:09:19;;;;;;;10.07;1.70;;;;;;;27.65;48.98;100725.13;5185080;28;20037;-73
2022/05/16 09:12:01;;;;;;;6.43;1.42;;;;;;;27.72;48.39;100726.25;5184506;28;20446;-74
2022/05/16 09:14:34;;;;;;;5.88;1.40;;;;;;;28.29;48.12;100725.47;5179762;28;20200;-74
2022/05/16 09:17:15;;;;;;;5.68;1.50;;;;;;;27.72;49.89;100722.69;5189732;28;20037;-73
2022/05/16 09:20:13;;;;;;;4.22;1.40;;;;;;;27.36;49.12;100724.66;5187336;28;20091;-73
2022/05/16 09:23:05;;;;;;;6.40;1.83;;;;;;;27.36;47.90;100708.53;5184154;28;20610;-73
2022/05/16 09:25:47;;;;;;;7.10;1.80;;;;;;;27.19;48.97;100712.09;5193766;28;20029;-74
2022/05/16 09:28:34;;;;;;;6.95;1.65;;;;;;;26.32;51.11;100714.75;5192316;28;20043;-73
2022/05/16 09:31:19;;;;;;;6.40;1.55;;;;;;;26.83;50.71;100714.94;5189895;28;20553;-73
2022/05/16 09:33:53;;;;;;;4.00;1.50;;;;;;;26.83;51.22;100705.06;5184370;28;20025;-73
2022/05/16 09:36:34;;;;;;;5.05;1.83;;;;;;;26.61;50.49;100704.69;5189617;28;20033;-73
2022/05/16 09:39:07;;;;;;;7.00;2.08;;;;;;;27.08;49.98;100704.25;5189890;28;20029;-73
2022/05/16 09:41:44;;;;;;;8.85;1.98;;;;;;;26.30;51.12;100705.16;5181837;28;20029;-74
2022/05/16 09:44:20;;;;;;;5.30;1.95;;;;;;;26.80;49.79;100700.00;5191831;28;20105;-74
2022/05/16 09:47:15;;;;;;;6.32;1.75;;;;;;;25.98;51.41;100704.81;5189857;28;20144;-74
2022/05/16 09:50:09;;;;;;;5.63;1.83;;;;;;;26.80;52.66;100696.47;5184574;28;20494;-74
2022/05/16 09:52:51;;;;;;;5.75;1.58;;;;;;;27.05;52.45;100701.91;5182138;28;20112;-73
2022/05/16 09:55:33;;;;;;;6.45;1.80;;;;;;;26.19;50.30;100705.38;5194290;28;20033;-73
2022/05/16 09:58:24;;;;;;;8.52;1.88;;;;;;;25.87;52.99;100691.59;5193656;28;20034;-74
2022/05/16 10:00:59;;;;;;;6.38;1.83;;;;;;;26.45;52.34;100692.91;5185495;28;20042;-74
2022/05/16 10:03:34;;;;;;;6.18;1.63;;;;;;;25.85;52.71;100698.94;5185771;28;20032;-74
2022/05/16 10:06:10;;;;;;;7.13;1.80;;;;;;;26.06;53.66;100696.84;5188978;28;20033;-73
2022/05/16 10:08:45;;;;;;;9.20;2.08;;;;;;;26.26;54.78;100693.06;5182179;28;20168;-73
2022/05/16 10:11:20;;;;;;;6.72;1.80;;;;;;;25.74;53.33;100688.38;5185940;28;20065;-73
2022/05/16 10:13:51;;;;;;;7.70;1.70;;;;;;;25.65;53.40;100691.94;5193942;28;20042;-73
2022/05/16 10:16:26;;;;;;;6.32;1.90;;;;;;;25.55;55.81;100689.31;5190247;28;20334;-73
2022/05/16 10:19:06;;;;;;;5.05;1.85;;;;;;;26.09;56.01;100691.19;5189577;28;20061;-73
2022/05/16 10:21:41;;;;;;;7.38;1.83;;;;;;;25.54;54.30;100701.00;5181365;28;20040;-73
2022/05/16 10:24:12;;;;;;;8.15;1.90;;;;;;;25.08;54.82;100698.28;5189158;28;20059;-73
2022/05/16 10:26:46;;;;;;;6.18;1.85;;;;;;;25.13;56.12;100690.66;5196978;28;20064;-73
2022/05/16 10:29:25;;;;;;;9.85;2.15;;;;;;;25.03;55.71;100684.50;5170224;28;20041;-73
2022/05/16 10:35:26;;;;;;;6.40;2.03;;;;;;;25.03;56.18;100689.00;5131174;28;20103;-73
2022/05/16 10:37:58;;;;;;;;;;;;;;;25.04;54.80;100677.28;5162310;28;20087;-73
2022/05/16 10:40:32;;;;;;;6.55;1.73;;;;;;;24.96;55.99;100674.50;5179015;28;20016;-73
2022/05/16 10:43:20;;;;;;;5.03;1.58;;;;;;;24.97;56.34;100668.16;5185419;28;20034;-73
2022/05/16 10:45:57;;;;;;;6.93;1.90;;;;;;;24.90;55.22;100683.09;5185340;28;20030;-73
2022/05/16 10:48:51;;;;;;;4.97;1.70;;;;;;;24.86;55.25;100682.53;5184064;28;20508;-73
2022/05/16 10:51:34;;;;;;;5.47;1.60;;;;;;;24.88;57.60;100675.22;5183135;28;20125;-73
2022/05/16 10:54:10;;;;;;;7.05;2.10;;;;;;;25.18;56.07;100664.34;5177755;28;20038;-73
2022/05/16 10:57:06;;;;;;;8.20;1.98;;;;;;;25.08;56.33;100666.16;5182838;28;20033;-73
2022/05/16 10:59:49;;;;;;;;;;;;;;;25.42;56.52;100669.19;5185222;28;20483;-73
2022/05/16 11:02:37;;;;;;;5.57;1.77;;;;;;;25.37;55.80;100666.13;5186694;28;19963;-73
2022/05/16 11:05:22;;;;;;;5.95;1.55;;;;;;;25.38;57.30;100666.00;5182715;28;20037;-73
2022/05/16 11:08:04;;;;;;;9.00;1.90;;;;;;;25.12;55.78;100675.59;5185080;28;20620;-74
2022/05/16 11:10:47;;;;;;;5.93;1.60;;;;;;;24.96;58.10;100666.47;5185603;28;20034;-74
2022/05/16 11:13:20;;;;;;;5.78;1.83;;;;;;;25.60;58.98;100651.38;5174878;28;20126;-73
2022/05/16 11:15:59;;;;;;;5.00;1.70;;;;;;;25.51;55.88;100647.75;5188436;28;20418;-73
2022/05/16 11:18:48;;;;;;;5.85;1.75;;;;;;;25.42;55.13;100653.13;5186830;28;20034;-74
2022/05/16 11:21:34;;;;;;;8.30;1.80;;;;;;;25.10;56.38;100660.66;5182385;28;20090;-74
2022/05/16 11:24:19;;;;;;;6.68;1.80;;;;;;;24.89;57.27;100646.63;5190193;28;20036;-74
2022/05/16 11:26:58;;;;;;;5.43;1.88;;;;;;;24.98;56.51;100651.13;5200446;28;20371;-73
2022/05/16 11:29:36;;;;;;;6.53;1.90;;;;;;;25.08;58.61;100647.44;5181446;28;20290;-73
2022/05/16 11:32:32;;;;;;;7.00;1.88;;;;;;;25.13;57.77;100647.84;5183859;28;20060;-74
2022/05/16 11:35:12;;;;;;;7.72;2.03;;;;;;;25.19;58.63;100646.47;5191795;28;20029;-73
2022/05/16 11:37:58;;;;;;;4.38;1.60;;;;;;;25.33;57.87;100636.13;5184869;28;20586;-73
2022/05/16 11:40:47;;;;;;;5.90;1.80;;;;;;;25.41;59.28;100646.94;5189223;28;20044;-73
2022/05/16 11:43:31;;;;;;;5.15;1.83;;;;;;;25.22;57.39;100643.47;5186346;28;20037;-74
2022/05/16 11:46:27;;;;;;;6.05;1.88;;;;;;;25.21;57.23;100645.34;5189118;28;20171;-73
2022/05/16 11:49:22;;;;;;;9.32;1.90;;;;;;;25.49;57.24;100639.00;5188800;28;20410;-73
2022/05/16 11:52:05;;;;;;;5.70;1.80;;;;;;;25.11;59.03;100639.13;5188199;28;20305;-72
2022/05/16 11:54:40;;;;;;;6.55;1.95;;;;;;;25.31;57.91;100639.94;5180189;28;20034;-73
2022/05/16 12:03:11;;;;;;;12.20;2.33;;;;;;;25.56;57.87;100624.06;5188396;28;20045;-74
2022/05/16 12:06:23;;;;;;;5.05;1.90;;;;;;;25.39;59.37;100626.66;5185331;28;20029;-74
2022/05/16 12:09:18;;;;;;;5.20;1.60;;;;;;;25.57;58.06;100623.06;5188219;28;20076;-74
2022/05/16 12:11:58;;;;;;;8.38;1.95;;;;;;;25.42;57.99;100616.50;5186867;28;20553;-74
2022/05/16 12:14:33;;;;;;;5.75;1.70;;;;;;;25.68;60.58;100617.50;5168738;28;20529;-74
2022/05/16 12:17:18;;;;;;;4.30;1.90;;;;;;;25.76;59.02;100620.28;5178466;28;20091;-73
2022/05/16 12:19:53;;;;;;;6.73;1.77;;;;;;;25.79;58.72;100613.78;5188397;28;20564;-74
2022/05/16 12:22:46;;;;;;;4.47;1.70;;;;;;;25.76;58.06;100619.44;5189599;28;20038;-74
2022/05/16 12:25:26;;;;;;;5.93;1.85;;;;;;;25.66;57.10;100608.78;5189737;28;20064;-73
2022/05/16 12:28:12;;;;;;;4.55;1.92;;;;;;;25.65;59.10;100609.75;5194814;28;20038;-73
2022/05/16 12:30:44;;;;;;;4.90;1.88;;;;;;;25.59;58.63;100612.19;5187360;28;20021;-73
2022/05/16 12:33:33;;;;;;;6.50;1.70;;;;;;;25.74;58.72;100608.88;5190136;28;20183;-72
2022/05/16 12:36:21;;;;;;;7.13;1.90;;;;;;;25.72;58.59;100608.19;5189555;28;20029;-73
2022/05/16 12:39:02;;;;;;;4.60;1.70;;;;;;;25.68;58.43;100608.63;5185622;28;20584;-73